sensor_id;sensor_type;location;lat;lon;timestamp;P1;durP1;ratioP1;P2;durP2;ratioP2
21527;SDS011;10925;49.102;-0.370;2022-10-16T00:01:21;5.68;;;1.13;;
21527;SDS011;10925;49.102;-0.370;2022-10-16T00:03:48;3.75;;;1.02;;
21527;SDS011;10925;49.102;-0.370;2022-10-16T00:06:16;6.60;;;1.48;;
21527;SDS011;10925;49.102;-0.370;2022-10-16T00:08:43;6.38;;;1.25;;
21527;SDS011;10925;49.102;-0.370;2022-10-16T00:11:14;5.22;;;1.67;;
21527;SDS011;10925;49.102;-0.370;2022-10-16T00:13:41;6.00;;;1.10;;
21527;SDS011;10925;49.102;-0.370;2022-10-16T00:16:09;5.35;;;1.13;;
21527;SDS011;10925;49.102;-0.370;2022-10-16T00:18:36;4.70;;;1.00;;
21527;SDS011;10925;49.102;-0.370;2022-10-16T00:21:07;3.78;;;1.17;;
21527;SDS011;10925;49.102;-0.370;2022-10-16T00:23:34;4.20;;;1.10;;
21527;SDS011;10925;49.102;-0.370;2022-10-16T00:26:02;6.43;;;1.05;;
21527;SDS011;10925;49.102;-0.370;2022-10-16T00:28:28;4.88;;;1.20;;
21527;SDS011;10925;49.102;-0.370;2022-10-16T00:30:53;6.30;;;1.08;;
21527;SDS011;10925;49.102;-0.370;2022-10-16T00:33:20;4.53;;;1.00;;
21527;SDS011;10925;49.102;-0.370;2022-10-16T00:35:47;5.43;;;1.02;;
21527;SDS011;10925;49.102;-0.370;2022-10-16T00:38:14;3.35;;;1.00;;
21527;SDS011;10925;49.102;-0.370;2022-10-16T00:40:40;3.15;;;1.10;;
21527;SDS011;10925;49.102;-0.370;2022-10-16T00:43:14;4.18;;;1.00;;
21527;SDS011;10925;49.102;-0.370;2022-10-16T00:45:58;6.18;;;1.33;;
21527;SDS011;10925;49.102;-0.370;2022-10-16T00:48:24;3.38;;;1.00;;
21527;SDS011;10925;49.102;-0.370;2022-10-16T00:50:51;5.80;;;1.42;;
21527;SDS011;10925;49.102;-0.370;2022-10-16T00:53:18;4.38;;;0.90;;
21527;SDS011;10925;49.102;-0.370;2022-10-16T00:55:44;8.07;;;1.35;;
21527;SDS011;10925;49.102;-0.370;2022-10-16T00:58:11;7.60;;;1.08;;
21527;SDS011;10925;49.102;-0.370;2022-10-16T01:00:37;5.78;;;1.48;;
21527;SDS011;10925;49.102;-0.370;2022-10-16T01:05:49;3.80;;;0.80;;
21527;SDS011;10925;49.102;-0.370;2022-10-16T01:08:27;6.45;;;1.40;;
21527;SDS011;10925;49.102;-0.370;2022-10-16T01:11:02;4.93;;;1.05;;
21527;SDS011;10925;49.102;-0.370;2022-10-16T01:13:35;8.10;;;1.10;;
21527;SDS011;10925;49.102;-0.370;2022-10-16T01:16:05;2.67;;;0.70;;
21527;SDS011;10925;49.102;-0.370;2022-10-16T01:18:43;6.35;;;1.00;;
21527;SDS011;10925;49.102;-0.370;2022-10-16T01:21:12;2.47;;;1.10;;
21527;SDS011;10925;49.102;-0.370;2022-10-16T01:28:58;6.25;;;1.33;;
21527;SDS011;10925;49.102;-0.370;2022-10-16T01:31:29;5.35;;;0.98;;
21527;SDS011;10925;49.102;-0.370;2022-10-16T01:33:58;3.78;;;1.10;;
21527;SDS011;10925;49.102;-0.370;2022-10-16T01:36:26;6.10;;;1.00;;
21527;SDS011;10925;49.102;-0.370;2022-10-16T01:38:56;4.60;;;1.10;;
21527;SDS011;10925;49.102;-0.370;2022-10-16T01:41:24;5.03;;;1.10;;
21527;SDS011;10925;49.102;-0.370;2022-10-16T01:44:14;5.95;;;1.13;;
21527;SDS011;10925;49.102;-0.370;2022-10-16T01:46:39;4.47;;;1.20;;
21527;SDS011;10925;49.102;-0.370;2022-10-16T01:49:05;8.73;;;1.10;;
21527;SDS011;10925;49.102;-0.370;2022-10-16T01:51:32;7.97;;;1.40;;
21527;SDS011;10925;49.102;-0.370;2022-10-16T01:54:00;3.38;;;0.98;;
21527;SDS011;10925;49.102;-0.370;2022-10-16T01:56:26;3.58;;;0.90;;
21527;SDS011;10925;49.102;-0.370;2022-10-16T01:58:54;5.55;;;1.15;;
21527;SDS011;10925;49.102;-0.370;2022-10-16T02:01:22;3.78;;;0.90;;
21527;SDS011;10925;49.102;-0.370;2022-10-16T02:03:50;3.38;;;1.20;;
21527;SDS011;10925;49.102;-0.370;2022-10-16T02:06:18;5.80;;;1.15;;
21527;SDS011;10925;49.102;-0.370;2022-10-16T02:08:45;4.78;;;1.00;;
21527;SDS011;10925;49.102;-0.370;2022-10-16T02:11:11;2.47;;;1.00;;
21527;SDS011;10925;49.102;-0.370;2022-10-16T02:13:39;9.13;;;1.40;;
21527;SDS011;10925;49.102;-0.370;2022-10-16T02:16:09;7.65;;;1.70;;
21527;SDS011;10925;49.102;-0.370;2022-10-16T02:18:36;2.05;;;0.90;;
21527;SDS011;10925;49.102;-0.370;2022-10-16T02:21:03;4.10;;;1.23;;
21527;SDS011;10925;49.102;-0.370;2022-10-16T02:23:53;7.22;;;1.10;;
21527;SDS011;10925;49.102;-0.370;2022-10-16T02:26:31;3.63;;;1.15;;
21527;SDS011;10925;49.102;-0.370;2022-10-16T02:29:02;5.55;;;1.40;;
21527;SDS011;10925;49.102;-0.370;2022-10-16T02:31:31;7.30;;;1.40;;
21527;SDS011;10925;49.102;-0.370;2022-10-16T02:34:00;7.32;;;1.25;;
21527;SDS011;10925;49.102;-0.370;2022-10-16T02:36:28;5.05;;;0.98;;
21527;SDS011;10925;49.102;-0.370;2022-10-16T02:38:55;8.48;;;1.30;;
21527;SDS011;10925;49.102;-0.370;2022-10-16T02:41:22;3.72;;;0.90;;
21527;SDS011;10925;49.102;-0.370;2022-10-16T02:43:49;3.58;;;1.08;;
21527;SDS011;10925;49.102;-0.370;2022-10-16T02:46:16;4.38;;;1.25;;
21527;SDS011;10925;49.102;-0.370;2022-10-16T02:48:43;4.15;;;1.50;;
21527;SDS011;10925;49.102;-0.370;2022-10-16T02:51:10;8.70;;;1.35;;
21527;SDS011;10925;49.102;-0.370;2022-10-16T02:53:35;6.72;;;1.35;;
21527;SDS011;10925;49.102;-0.370;2022-10-16T02:56:02;9.38;;;1.80;;
21527;SDS011;10925;49.102;-0.370;2022-10-16T02:58:29;7.45;;;1.55;;
21527;SDS011;10925;49.102;-0.370;2022-10-16T03:00:55;8.07;;;1.80;;
21527;SDS011;10925;49.102;-0.370;2022-10-16T03:03:22;8.63;;;1.42;;
21527;SDS011;10925;49.102;-0.370;2022-10-16T03:05:50;8.90;;;1.30;;
21527;SDS011;10925;49.102;-0.370;2022-10-16T03:08:15;6.55;;;1.27;;
21527;SDS011;10925;49.102;-0.370;2022-10-16T03:10:42;8.45;;;1.35;;
21527;SDS011;10925;49.102;-0.370;2022-10-16T03:13:09;5.32;;;1.50;;
21527;SDS011;10925;49.102;-0.370;2022-10-16T03:15:34;9.38;;;1.20;;
21527;SDS011;10925;49.102;-0.370;2022-10-16T03:18:01;7.90;;;2.08;;
21527;SDS011;10925;49.102;-0.370;2022-10-16T03:20:28;7.05;;;1.50;;
21527;SDS011;10925;49.102;-0.370;2022-10-16T03:22:53;3.83;;;1.10;;
21527;SDS011;10925;49.102;-0.370;2022-10-16T03:25:18;11.50;;;1.60;;
21527;SDS011;10925;49.102;-0.370;2022-10-16T03:27:45;8.68;;;1.30;;
21527;SDS011;10925;49.102;-0.370;2022-10-16T03:30:12;6.28;;;1.13;;
21527;SDS011;10925;49.102;-0.370;2022-10-16T03:32:38;3.08;;;1.15;;
21527;SDS011;10925;49.102;-0.370;2022-10-16T03:35:03;9.18;;;1.55;;
21527;SDS011;10925;49.102;-0.370;2022-10-16T03:37:30;8.40;;;1.52;;
21527;SDS011;10925;49.102;-0.370;2022-10-16T03:39:55;4.82;;;1.42;;
21527;SDS011;10925;49.102;-0.370;2022-10-16T03:42:22;3.10;;;1.20;;
21527;SDS011;10925;49.102;-0.370;2022-10-16T03:44:49;5.20;;;1.20;;
21527;SDS011;10925;49.102;-0.370;2022-10-16T03:47:15;7.50;;;1.45;;
21527;SDS011;10925;49.102;-0.370;2022-10-16T03:49:47;4.68;;;1.48;;
21527;SDS011;10925;49.102;-0.370;2022-10-16T03:52:14;5.70;;;1.20;;
21527;SDS011;10925;49.102;-0.370;2022-10-16T03:54:40;5.85;;;1.20;;
21527;SDS011;10925;49.102;-0.370;2022-10-16T03:57:07;6.90;;;1.77;;
21527;SDS011;10925;49.102;-0.370;2022-10-16T03:59:34;7.85;;;1.48;;
21527;SDS011;10925;49.102;-0.370;2022-10-16T04:02:00;7.78;;;1.85;;
21527;SDS011;10925;49.102;-0.370;2022-10-16T04:04:27;9.10;;;1.40;;
21527;SDS011;10925;49.102;-0.370;2022-10-16T04:06:54;8.32;;;2.28;;
21527;SDS011;10925;49.102;-0.370;2022-10-16T04:09:19;6.38;;;1.25;;
21527;SDS011;10925;49.102;-0.370;2022-10-16T04:11:46;6.07;;;1.25;;
21527;SDS011;10925;49.102;-0.370;2022-10-16T04:14:12;8.27;;;1.50;;
21527;SDS011;10925;49.102;-0.370;2022-10-16T04:16:39;3.83;;;1.40;;
21527;SDS011;10925;49.102;-0.370;2022-10-16T04:19:05;6.65;;;1.40;;
21527;SDS011;10925;49.102;-0.370;2022-10-16T04:21:32;6.45;;;1.50;;
21527;SDS011;10925;49.102;-0.370;2022-10-16T04:23:59;6.30;;;1.40;;
21527;SDS011;10925;49.102;-0.370;2022-10-16T04:26:25;4.40;;;1.23;;
21527;SDS011;10925;49.102;-0.370;2022-10-16T04:28:52;8.18;;;1.40;;
21527;SDS011;10925;49.102;-0.370;2022-10-16T04:31:19;7.50;;;1.58;;
21527;SDS011;10925;49.102;-0.370;2022-10-16T04:33:46;8.73;;;1.63;;
21527;SDS011;10925;49.102;-0.370;2022-10-16T04:36:13;6.65;;;1.50;;
21527;SDS011;10925;49.102;-0.370;2022-10-16T04:38:39;4.15;;;1.77;;
21527;SDS011;10925;49.102;-0.370;2022-10-16T04:43:54;4.72;;;1.52;;
21527;SDS011;10925;49.102;-0.370;2022-10-16T04:46:21;9.98;;;1.80;;
21527;SDS011;10925;49.102;-0.370;2022-10-16T04:48:48;6.97;;;1.60;;
21527;SDS011;10925;49.102;-0.370;2022-10-16T04:51:14;7.00;;;2.13;;
21527;SDS011;10925;49.102;-0.370;2022-10-16T04:53:40;9.63;;;2.03;;
21527;SDS011;10925;49.102;-0.370;2022-10-16T04:56:05;9.70;;;1.60;;
21527;SDS011;10925;49.102;-0.370;2022-10-16T04:58:32;10.15;;;2.08;;
21527;SDS011;10925;49.102;-0.370;2022-10-16T05:00:59;8.65;;;1.80;;
21527;SDS011;10925;49.102;-0.370;2022-10-16T05:03:24;11.43;;;2.10;;
21527;SDS011;10925;49.102;-0.370;2022-10-16T05:05:51;11.65;;;2.25;;
21527;SDS011;10925;49.102;-0.370;2022-10-16T05:08:18;10.57;;;2.35;;
21527;SDS011;10925;49.102;-0.370;2022-10-16T05:10:43;9.20;;;2.08;;
21527;SDS011;10925;49.102;-0.370;2022-10-16T05:13:09;6.72;;;2.33;;
21527;SDS011;10925;49.102;-0.370;2022-10-16T05:15:36;14.77;;;2.78;;
21527;SDS011;10925;49.102;-0.370;2022-10-16T05:18:02;8.80;;;2.42;;
21527;SDS011;10925;49.102;-0.370;2022-10-16T05:20:29;6.72;;;2.10;;
21527;SDS011;10925;49.102;-0.370;2022-10-16T05:22:56;12.02;;;2.97;;
21527;SDS011;10925;49.102;-0.370;2022-10-16T05:25:23;4.85;;;2.20;;
21527;SDS011;10925;49.102;-0.370;2022-10-16T05:27:50;8.57;;;2.70;;
21527;SDS011;10925;49.102;-0.370;2022-10-16T05:30:16;6.57;;;2.22;;
21527;SDS011;10925;49.102;-0.370;2022-10-16T05:32:48;8.63;;;2.65;;
21527;SDS011;10925;49.102;-0.370;2022-10-16T05:35:15;11.02;;;2.97;;
21527;SDS011;10925;49.102;-0.370;2022-10-16T05:37:43;13.45;;;2.80;;
21527;SDS011;10925;49.102;-0.370;2022-10-16T05:40:13;9.90;;;2.72;;
21527;SDS011;10925;49.102;-0.370;2022-10-16T05:42:40;9.40;;;2.70;;
21527;SDS011;10925;49.102;-0.370;2022-10-16T05:45:08;13.50;;;2.42;;
21527;SDS011;10925;49.102;-0.370;2022-10-16T05:47:35;8.15;;;2.53;;
21527;SDS011;10925;49.102;-0.370;2022-10-16T05:50:03;7.95;;;2.75;;
21527;SDS011;10925;49.102;-0.370;2022-10-16T05:52:30;10.02;;;2.70;;
21527;SDS011;10925;49.102;-0.370;2022-10-16T05:54:57;7.05;;;2.42;;
21527;SDS011;10925;49.102;-0.370;2022-10-16T05:57:24;7.03;;;2.30;;
21527;SDS011;10925;49.102;-0.370;2022-10-16T05:59:52;6.93;;;2.50;;
21527;SDS011;10925;49.102;-0.370;2022-10-16T06:02:19;10.15;;;2.60;;
21527;SDS011;10925;49.102;-0.370;2022-10-16T06:04:46;5.38;;;2.67;;
21527;SDS011;10925;49.102;-0.370;2022-10-16T06:07:13;10.45;;;2.70;;
21527;SDS011;10925;49.102;-0.370;2022-10-16T06:09:40;11.73;;;3.05;;
21527;SDS011;10925;49.102;-0.370;2022-10-16T06:12:07;13.45;;;3.13;;
21527;SDS011;10925;49.102;-0.370;2022-10-16T06:14:33;10.63;;;2.90;;
21527;SDS011;10925;49.102;-0.370;2022-10-16T06:17:00;9.38;;;2.78;;
21527;SDS011;10925;49.102;-0.370;2022-10-16T06:19:28;7.22;;;2.65;;
21527;SDS011;10925;49.102;-0.370;2022-10-16T06:21:53;7.75;;;2.70;;
21527;SDS011;10925;49.102;-0.370;2022-10-16T06:24:20;11.90;;;2.85;;
21527;SDS011;10925;49.102;-0.370;2022-10-16T06:26:47;10.85;;;3.30;;
21527;SDS011;10925;49.102;-0.370;2022-10-16T06:29:14;6.55;;;2.60;;
21527;SDS011;10925;49.102;-0.370;2022-10-16T06:31:41;8.05;;;3.10;;
21527;SDS011;10925;49.102;-0.370;2022-10-16T06:34:09;10.13;;;3.28;;
21527;SDS011;10925;49.102;-0.370;2022-10-16T06:36:37;8.18;;;3.00;;
21527;SDS011;10925;49.102;-0.370;2022-10-16T06:39:05;8.35;;;3.20;;
21527;SDS011;10925;49.102;-0.370;2022-10-16T06:41:33;11.30;;;3.95;;
21527;SDS011;10925;49.102;-0.370;2022-10-16T06:44:13;6.97;;;3.35;;
21527;SDS011;10925;49.102;-0.370;2022-10-16T06:46:39;11.63;;;3.83;;
21527;SDS011;10925;49.102;-0.370;2022-10-16T06:49:06;13.98;;;3.65;;
21527;SDS011;10925;49.102;-0.370;2022-10-16T06:51:33;11.90;;;3.75;;
21527;SDS011;10925;49.102;-0.370;2022-10-16T06:54:08;14.50;;;4.10;;
21527;SDS011;10925;49.102;-0.370;2022-10-16T06:56:35;10.15;;;3.92;;
21527;SDS011;10925;49.102;-0.370;2022-10-16T06:59:02;11.57;;;4.05;;
21527;SDS011;10925;49.102;-0.370;2022-10-16T07:01:30;12.10;;;4.22;;
21527;SDS011;10925;49.102;-0.370;2022-10-16T07:03:57;16.52;;;5.18;;
21527;SDS011;10925;49.102;-0.370;2022-10-16T07:06:25;17.13;;;4.80;;
21527;SDS011;10925;49.102;-0.370;2022-10-16T07:08:51;11.52;;;4.40;;
21527;SDS011;10925;49.102;-0.370;2022-10-16T07:11:18;15.05;;;4.65;;
21527;SDS011;10925;49.102;-0.370;2022-10-16T07:13:44;14.32;;;4.45;;
21527;SDS011;10925;49.102;-0.370;2022-10-16T07:16:11;16.80;;;4.15;;
21527;SDS011;10925;49.102;-0.370;2022-10-16T07:18:37;13.40;;;4.13;;
21527;SDS011;10925;49.102;-0.370;2022-10-16T07:21:23;11.35;;;4.60;;
21527;SDS011;10925;49.102;-0.370;2022-10-16T07:23:56;10.63;;;4.05;;
21527;SDS011;10925;49.102;-0.370;2022-10-16T07:26:23;13.23;;;4.65;;
21527;SDS011;10925;49.102;-0.370;2022-10-16T07:28:50;11.55;;;4.82;;
21527;SDS011;10925;49.102;-0.370;2022-10-16T07:31:18;12.40;;;4.65;;
21527;SDS011;10925;49.102;-0.370;2022-10-16T07:33:45;14.43;;;4.07;;
21527;SDS011;10925;49.102;-0.370;2022-10-16T07:36:14;9.82;;;4.53;;
21527;SDS011;10925;49.102;-0.370;2022-10-16T07:38:44;14.85;;;4.28;;
21527;SDS011;10925;49.102;-0.370;2022-10-16T07:41:15;14.77;;;4.70;;
21527;SDS011;10925;49.102;-0.370;2022-10-16T07:43:51;12.35;;;4.13;;
21527;SDS011;10925;49.102;-0.370;2022-10-16T07:46:18;16.52;;;4.63;;
21527;SDS011;10925;49.102;-0.370;2022-10-16T07:48:47;8.02;;;4.57;;
21527;SDS011;10925;49.102;-0.370;2022-10-16T07:51:15;9.13;;;4.55;;
21527;SDS011;10925;49.102;-0.370;2022-10-16T07:53:41;17.23;;;5.00;;
21527;SDS011;10925;49.102;-0.370;2022-10-16T07:56:08;9.05;;;5.13;;
21527;SDS011;10925;49.102;-0.370;2022-10-16T07:58:34;16.45;;;4.57;;
21527;SDS011;10925;49.102;-0.370;2022-10-16T08:01:04;15.70;;;4.50;;
21527;SDS011;10925;49.102;-0.370;2022-10-16T08:03:31;11.88;;;4.82;;
21527;SDS011;10925;49.102;-0.370;2022-10-16T08:05:59;14.57;;;4.70;;
21527;SDS011;10925;49.102;-0.370;2022-10-16T08:08:26;9.75;;;4.65;;
21527;SDS011;10925;49.102;-0.370;2022-10-16T08:10:52;13.00;;;4.35;;
21527;SDS011;10925;49.102;-0.370;2022-10-16T08:13:19;12.70;;;4.50;;
21527;SDS011;10925;49.102;-0.370;2022-10-16T08:15:48;11.45;;;4.88;;
21527;SDS011;10925;49.102;-0.370;2022-10-16T08:18:14;12.75;;;4.82;;
21527;SDS011;10925;49.102;-0.370;2022-10-16T08:20:41;11.93;;;4.03;;
21527;SDS011;10925;49.102;-0.370;2022-10-16T08:23:11;12.93;;;4.40;;
21527;SDS011;10925;49.102;-0.370;2022-10-16T08:25:38;16.90;;;3.97;;
21527;SDS011;10925;49.102;-0.370;2022-10-16T08:28:04;9.00;;;3.30;;
21527;SDS011;10925;49.102;-0.370;2022-10-16T08:30:34;11.32;;;3.70;;
21527;SDS011;10925;49.102;-0.370;2022-10-16T08:33:01;12.80;;;3.63;;
21527;SDS011;10925;49.102;-0.370;2022-10-16T08:35:26;7.47;;;3.08;;
21527;SDS011;10925;49.102;-0.370;2022-10-16T08:37:52;8.13;;;3.00;;
21527;SDS011;10925;49.102;-0.370;2022-10-16T08:40:24;13.73;;;3.88;;
21527;SDS011;10925;49.102;-0.370;2022-10-16T08:43:00;11.15;;;3.10;;
21527;SDS011;10925;49.102;-0.370;2022-10-16T08:48:00;14.93;;;3.75;;
21527;SDS011;10925;49.102;-0.370;2022-10-16T08:50:28;8.85;;;3.20;;
21527;SDS011;10925;49.102;-0.370;2022-10-16T08:53:00;9.05;;;3.50;;
21527;SDS011;10925;49.102;-0.370;2022-10-16T08:57:56;9.27;;;3.20;;
21527;SDS011;10925;49.102;-0.370;2022-10-16T09:00:23;7.97;;;2.70;;
21527;SDS011;10925;49.102;-0.370;2022-10-16T09:05:48;9.25;;;2.28;;
21527;SDS011;10925;49.102;-0.370;2022-10-16T09:11:45;6.32;;;1.85;;
21527;SDS011;10925;49.102;-0.370;2022-10-16T09:14:07;5.82;;;1.88;;
21527;SDS011;10925;49.102;-0.370;2022-10-16T09:16:40;7.78;;;2.20;;
21527;SDS011;10925;49.102;-0.370;2022-10-16T09:19:13;6.35;;;2.00;;
21527;SDS011;10925;49.102;-0.370;2022-10-16T09:21:42;7.50;;;1.80;;
21527;SDS011;10925;49.102;-0.370;2022-10-16T09:24:13;12.70;;;1.95;;
21527;SDS011;10925;49.102;-0.370;2022-10-16T09:26:40;6.43;;;1.85;;
21527;SDS011;10925;49.102;-0.370;2022-10-16T09:29:10;6.10;;;1.50;;
21527;SDS011;10925;49.102;-0.370;2022-10-16T09:31:37;5.90;;;1.85;;
21527;SDS011;10925;49.102;-0.370;2022-10-16T09:34:04;7.75;;;2.00;;
21527;SDS011;10925;49.102;-0.370;2022-10-16T09:36:43;6.70;;;1.75;;
21527;SDS011;10925;49.102;-0.370;2022-10-16T09:39:11;4.88;;;1.75;;
21527;SDS011;10925;49.102;-0.370;2022-10-16T09:41:42;5.55;;;1.95;;
21527;SDS011;10925;49.102;-0.370;2022-10-16T09:44:23;6.55;;;2.10;;
21527;SDS011;10925;49.102;-0.370;2022-10-16T09:47:01;3.85;;;1.63;;
21527;SDS011;10925;49.102;-0.370;2022-10-16T09:49:28;4.82;;;2.22;;
21527;SDS011;10925;49.102;-0.370;2022-10-16T09:52:05;7.78;;;2.03;;
21527;SDS011;10925;49.102;-0.370;2022-10-16T09:54:31;4.00;;;1.67;;
21527;SDS011;10925;49.102;-0.370;2022-10-16T09:57:05;6.75;;;2.15;;
21527;SDS011;10925;49.102;-0.370;2022-10-16T09:59:31;6.75;;;2.00;;
21527;SDS011;10925;49.102;-0.370;2022-10-16T10:02:01;7.53;;;1.90;;
21527;SDS011;10925;49.102;-0.370;2022-10-16T10:04:37;4.22;;;2.08;;
21527;SDS011;10925;49.102;-0.370;2022-10-16T10:07:05;4.43;;;1.80;;
21527;SDS011;10925;49.102;-0.370;2022-10-16T10:11:57;6.78;;;1.77;;
21527;SDS011;10925;49.102;-0.370;2022-10-16T10:21:58;4.50;;;1.30;;
21527;SDS011;10925;49.102;-0.370;2022-10-16T10:24:25;3.00;;;1.48;;
21527;SDS011;10925;49.102;-0.370;2022-10-16T10:27:05;4.00;;;1.50;;
21527;SDS011;10925;49.102;-0.370;2022-10-16T10:37:04;4.45;;;1.92;;
21527;SDS011;10925;49.102;-0.370;2022-10-16T10:39:35;4.50;;;1.60;;
21527;SDS011;10925;49.102;-0.370;2022-10-16T10:47:48;2.67;;;1.38;;
21527;SDS011;10925;49.102;-0.370;2022-10-16T10:50:34;4.78;;;1.48;;
21527;SDS011;10925;49.102;-0.370;2022-10-16T10:55:33;4.50;;;1.50;;
21527;SDS011;10925;49.102;-0.370;2022-10-16T11:03:40;9.98;;;2.42;;
21527;SDS011;10925;49.102;-0.370;2022-10-16T11:06:12;5.07;;;1.60;;
21527;SDS011;10925;49.102;-0.370;2022-10-16T11:08:43;4.43;;;1.75;;
21527;SDS011;10925;49.102;-0.370;2022-10-16T11:13:44;6.55;;;2.40;;
21527;SDS011;10925;49.102;-0.370;2022-10-16T11:19:22;6.88;;;3.40;;
21527;SDS011;10925;49.102;-0.370;2022-10-16T11:22:06;5.20;;;3.25;;
21527;SDS011;10925;49.102;-0.370;2022-10-16T11:27:17;9.90;;;5.00;;
21527;SDS011;10925;49.102;-0.370;2022-10-16T11:29:49;10.10;;;4.32;;
21527;SDS011;10925;49.102;-0.370;2022-10-16T11:32:21;7.72;;;2.47;;
21527;SDS011;10925;49.102;-0.370;2022-10-16T11:34:49;3.88;;;2.40;;
21527;SDS011;10925;49.102;-0.370;2022-10-16T11:37:36;4.70;;;2.05;;
21527;SDS011;10925;49.102;-0.370;2022-10-16T11:40:28;6.20;;;2.10;;
21527;SDS011;10925;49.102;-0.370;2022-10-16T11:43:04;3.97;;;2.10;;
21527;SDS011;10925;49.102;-0.370;2022-10-16T11:45:39;4.32;;;1.70;;
21527;SDS011;10925;49.102;-0.370;2022-10-16T11:51:00;4.97;;;2.63;;
21527;SDS011;10925;49.102;-0.370;2022-10-16T11:53:45;4.55;;;1.65;;
21527;SDS011;10925;49.102;-0.370;2022-10-16T11:56:12;5.28;;;1.70;;
21527;SDS011;10925;49.102;-0.370;2022-10-16T12:01:16;3.95;;;1.70;;
21527;SDS011;10925;49.102;-0.370;2022-10-16T12:03:45;3.10;;;1.55;;
21527;SDS011;10925;49.102;-0.370;2022-10-16T12:08:51;3.40;;;1.77;;
21527;SDS011;10925;49.102;-0.370;2022-10-16T12:16:51;3.72;;;1.85;;
21527;SDS011;10925;49.102;-0.370;2022-10-16T12:19:19;5.03;;;2.05;;
21527;SDS011;10925;49.102;-0.370;2022-10-16T12:21:45;3.47;;;1.95;;
21527;SDS011;10925;49.102;-0.370;2022-10-16T12:24:29;5.45;;;2.00;;
21527;SDS011;10925;49.102;-0.370;2022-10-16T12:26:56;4.47;;;2.20;;
21527;SDS011;10925;49.102;-0.370;2022-10-16T12:31:48;3.75;;;2.85;;
21527;SDS011;10925;49.102;-0.370;2022-10-16T12:37:07;5.32;;;2.63;;
21527;SDS011;10925;49.102;-0.370;2022-10-16T12:39:34;5.87;;;2.00;;
21527;SDS011;10925;49.102;-0.370;2022-10-16T12:42:17;5.10;;;2.00;;
21527;SDS011;10925;49.102;-0.370;2022-10-16T12:44:43;2.95;;;1.90;;
21527;SDS011;10925;49.102;-0.370;2022-10-16T12:47:18;7.18;;;2.05;;
21527;SDS011;10925;49.102;-0.370;2022-10-16T12:49:53;5.28;;;1.70;;
21527;SDS011;10925;49.102;-0.370;2022-10-16T12:52:34;7.57;;;2.83;;
21527;SDS011;10925;49.102;-0.370;2022-10-16T12:55:02;11.10;;;2.70;;
21527;SDS011;10925;49.102;-0.370;2022-10-16T12:57:34;7.80;;;2.08;;
21527;SDS011;10925;49.102;-0.370;2022-10-16T13:15:52;9.13;;;2.72;;
21527;SDS011;10925;49.102;-0.370;2022-10-16T13:18:16;7.18;;;3.03;;
21527;SDS011;10925;49.102;-0.370;2022-10-16T13:23:34;5.97;;;2.47;;
21527;SDS011;10925;49.102;-0.370;2022-10-16T13:28:33;9.18;;;2.90;;
21527;SDS011;10925;49.102;-0.370;2022-10-16T13:31:01;4.75;;;2.75;;
21527;SDS011;10925;49.102;-0.370;2022-10-16T13:33:35;5.22;;;3.13;;
21527;SDS011;10925;49.102;-0.370;2022-10-16T13:36:01;7.20;;;3.15;;
21527;SDS011;10925;49.102;-0.370;2022-10-16T13:38:28;5.05;;;3.42;;
21527;SDS011;10925;49.102;-0.370;2022-10-16T13:43:24;7.30;;;3.67;;
21527;SDS011;10925;49.102;-0.370;2022-10-16T13:45:55;4.25;;;3.00;;
21527;SDS011;10925;49.102;-0.370;2022-10-16T13:48:21;6.10;;;2.63;;
21527;SDS011;10925;49.102;-0.370;2022-10-16T13:50:58;3.97;;;2.60;;
21527;SDS011;10925;49.102;-0.370;2022-10-16T13:55:50;8.07;;;2.38;;
21527;SDS011;10925;49.102;-0.370;2022-10-16T13:58:15;4.90;;;1.95;;
21527;SDS011;10925;49.102;-0.370;2022-10-16T14:00:51;3.50;;;1.73;;
21527;SDS011;10925;49.102;-0.370;2022-10-16T14:03:19;2.75;;;2.15;;
21527;SDS011;10925;49.102;-0.370;2022-10-16T14:06:06;5.97;;;2.75;;
21527;SDS011;10925;49.102;-0.370;2022-10-16T14:08:41;5.93;;;2.45;;
21527;SDS011;10925;49.102;-0.370;2022-10-16T14:11:07;4.07;;;2.00;;
21527;SDS011;10925;49.102;-0.370;2022-10-16T14:13:38;3.33;;;2.40;;
21527;SDS011;10925;49.102;-0.370;2022-10-16T14:16:15;3.90;;;1.77;;
21527;SDS011;10925;49.102;-0.370;2022-10-16T14:18:44;4.68;;;2.35;;
21527;SDS011;10925;49.102;-0.370;2022-10-16T14:21:12;3.92;;;1.70;;
21527;SDS011;10925;49.102;-0.370;2022-10-16T14:23:41;2.88;;;1.80;;
21527;SDS011;10925;49.102;-0.370;2022-10-16T14:28:35;3.08;;;1.88;;
21527;SDS011;10925;49.102;-0.370;2022-10-16T14:31:02;5.50;;;1.77;;
21527;SDS011;10925;49.102;-0.370;2022-10-16T14:33:41;5.55;;;1.90;;
21527;SDS011;10925;49.102;-0.370;2022-10-16T14:36:12;2.60;;;1.75;;
21527;SDS011;10925;49.102;-0.370;2022-10-16T14:38:42;1.92;;;1.25;;
21527;SDS011;10925;49.102;-0.370;2022-10-16T14:41:08;3.97;;;1.50;;
21527;SDS011;10925;49.102;-0.370;2022-10-16T14:43:39;4.22;;;1.92;;
21527;SDS011;10925;49.102;-0.370;2022-10-16T14:46:12;5.05;;;1.83;;
21527;SDS011;10925;49.102;-0.370;2022-10-16T14:48:42;4.30;;;2.10;;
21527;SDS011;10925;49.102;-0.370;2022-10-16T14:51:13;3.38;;;1.80;;
21527;SDS011;10925;49.102;-0.370;2022-10-16T14:53:40;4.13;;;2.38;;
21527;SDS011;10925;49.102;-0.370;2022-10-16T14:56:17;3.80;;;1.98;;
21527;SDS011;10925;49.102;-0.370;2022-10-16T14:58:42;3.33;;;1.90;;
21527;SDS011;10925;49.102;-0.370;2022-10-16T15:01:10;6.78;;;2.53;;
21527;SDS011;10925;49.102;-0.370;2022-10-16T15:03:38;3.60;;;2.60;;
21527;SDS011;10925;49.102;-0.370;2022-10-16T15:06:15;3.50;;;3.20;;
21527;SDS011;10925;49.102;-0.370;2022-10-16T15:08:42;6.45;;;2.80;;
21527;SDS011;10925;49.102;-0.370;2022-10-16T15:11:12;2.60;;;2.25;;
21527;SDS011;10925;49.102;-0.370;2022-10-16T15:13:40;4.35;;;2.00;;
21527;SDS011;10925;49.102;-0.370;2022-10-16T15:16:09;5.20;;;2.40;;
21527;SDS011;10925;49.102;-0.370;2022-10-16T15:18:37;4.45;;;2.38;;
21527;SDS011;10925;49.102;-0.370;2022-10-16T15:21:03;3.30;;;1.73;;
21527;SDS011;10925;49.102;-0.370;2022-10-16T15:23:30;4.22;;;2.10;;
21527;SDS011;10925;49.102;-0.370;2022-10-16T15:25:56;4.38;;;2.50;;
21527;SDS011;10925;49.102;-0.370;2022-10-16T15:28:23;6.22;;;2.47;;
21527;SDS011;10925;49.102;-0.370;2022-10-16T15:30:54;3.75;;;2.13;;
21527;SDS011;10925;49.102;-0.370;2022-10-16T15:33:22;3.10;;;1.83;;
21527;SDS011;10925;49.102;-0.370;2022-10-16T15:35:48;4.50;;;1.88;;
21527;SDS011;10925;49.102;-0.370;2022-10-16T15:38:14;5.65;;;3.20;;
21527;SDS011;10925;49.102;-0.370;2022-10-16T15:40:42;9.93;;;6.10;;
21527;SDS011;10925;49.102;-0.370;2022-10-16T15:43:09;4.32;;;2.72;;
21527;SDS011;10925;49.102;-0.370;2022-10-16T15:45:36;7.10;;;2.80;;
21527;SDS011;10925;49.102;-0.370;2022-10-16T15:48:02;7.85;;;3.15;;
21527;SDS011;10925;49.102;-0.370;2022-10-16T15:50:27;5.25;;;2.50;;
21527;SDS011;10925;49.102;-0.370;2022-10-16T15:52:54;5.15;;;2.38;;
21527;SDS011;10925;49.102;-0.370;2022-10-16T15:55:21;5.57;;;2.20;;
21527;SDS011;10925;49.102;-0.370;2022-10-16T15:57:47;3.88;;;2.10;;
21527;SDS011;10925;49.102;-0.370;2022-10-16T16:00:15;4.45;;;2.03;;
21527;SDS011;10925;49.102;-0.370;2022-10-16T16:02:41;2.70;;;2.08;;
21527;SDS011;10925;49.102;-0.370;2022-10-16T16:05:07;3.45;;;2.40;;
21527;SDS011;10925;49.102;-0.370;2022-10-16T16:07:35;5.75;;;3.03;;
21527;SDS011;10925;49.102;-0.370;2022-10-16T16:10:01;6.28;;;2.83;;
21527;SDS011;10925;49.102;-0.370;2022-10-16T16:12:29;6.70;;;3.05;;
21527;SDS011;10925;49.102;-0.370;2022-10-16T16:14:56;5.03;;;3.10;;
21527;SDS011;10925;49.102;-0.370;2022-10-16T16:17:27;6.85;;;3.22;;
21527;SDS011;10925;49.102;-0.370;2022-10-16T16:19:53;9.02;;;4.40;;
21527;SDS011;10925;49.102;-0.370;2022-10-16T16:22:20;6.43;;;4.68;;
21527;SDS011;10925;49.102;-0.370;2022-10-16T16:24:47;7.72;;;4.72;;
21527;SDS011;10925;49.102;-0.370;2022-10-16T16:27:13;7.75;;;4.55;;
21527;SDS011;10925;49.102;-0.370;2022-10-16T16:29:40;5.50;;;3.72;;
21527;SDS011;10925;49.102;-0.370;2022-10-16T16:32:06;7.65;;;3.78;;